Gulf Bridge — A8JM5 — position and weather

sailwx.info

Track history (hours):
 
Tides and Currents Weather Stations Pressure Air Temp Water Temp Dewpoint Dewpoint Depression Visibility Wind Speed Wind Dir Waves Ship Positions

Gulf Bridge

Last reported at 2017-Feb-20 08:31 UTC. Time now 2017-Feb-20 08:56 UTC.
Position N 35°26' E 139°43'.

Length 213 m; beam 32.2 m; draft 11.5 m.

Type: Cargo ship. MMSI: 636017628.

Date/timePositionNaut miles runAvg speedWind from/ knotsBaromVisibWave heightAir tempDewpointWater temp
2017-Feb-20 08:31N 35°26' E 139°43'0 0.1
2017-Feb-20 07:30N 35°26' E 139°43'0 0.1
2017-Feb-20 06:34N 35°26' E 139°43'0 0.0
2017-Feb-20 05:31N 35°26' E 139°43'0 0.0
2017-Feb-20 04:33N 35°26' E 139°43'0 0.1
2017-Feb-20 03:30N 35°25' E 139°43'0 0.1
2017-Feb-20 02:32N 35°26' E 139°43'0 0.1
2017-Feb-20 01:32N 35°25' E 139°43'0 0.1
2017-Feb-20 00:31N 35°25' E 139°43'0 0.0
2017-Feb-19 23:32N 35°25' E 139°43'0 0.2
2017-Feb-19 22:31N 35°25' E 139°43'0 0.0
2017-Feb-19 21:31N 35°25' E 139°43'0 0.1
2017-Feb-19 20:33N 35°25' E 139°43'0 0.2
2017-Feb-19 19:33N 35°25' E 139°43'0 0.0
2017-Feb-19 18:33N 35°25' E 139°43'0 0.0
2017-Feb-19 17:33N 35°25' E 139°43'0 0.0
2017-Feb-19 16:33N 35°25' E 139°43'0 0.0
2017-Feb-19 15:33N 35°25' E 139°43'0 0.1
2017-Feb-19 14:33N 35°25' E 139°43'0 0.1
2017-Feb-19 13:33N 35°25' E 139°43'0 0.1
2017-Feb-19 12:33N 35°25' E 139°43'0 0.0
2017-Feb-19 11:33N 35°25' E 139°43'0 0.0
2017-Feb-19 10:33N 35°25' E 139°43'0 0.0
2017-Feb-19 09:33N 35°25' E 139°43'1 1.0
2017-Feb-19 08:33N 35°26' E 139°44'9 9.1
2017-Feb-19 07:33N 35°34' E 139°49'3 3.1
2017-Feb-19 06:31N 35°36' E 139°47'0 0.0
2017-Feb-19 05:28N 35°36' E 139°47'0 0.0
2017-Feb-19 04:31N 35°36' E 139°47'0 0.0
2017-Feb-19 03:31N 35°36' E 139°47'0 0.0
2017-Feb-19 02:22N 35°36' E 139°47'0 0.0
2017-Feb-19 01:28N 35°36' E 139°47'0 0.0
2017-Feb-19 00:31N 35°36' E 139°47'0 0.0
2017-Feb-18 23:22N 35°36' E 139°47'0 0.0
2017-Feb-18 22:31N 35°36' E 139°47'4 4.7
2017-Feb-18 21:33N 35°33' E 139°51'1111.2
2017-Feb-18 20:33N 35°23' E 139°46'1211.8
2017-Feb-18 19:33N 35°11' E 139°47'9 8.5
2017-Feb-18 18:33N 35°03' E 139°42'10 9.8
2017-Feb-18 17:33N 34°58' E 139°32'10 9.4
2017-Feb-18 16:33N 34°53' E 139°23'226 9.4
2017-Feb-17 16:21N 33°54' E 134°58'911.7
2017-Feb-17 15:33N 34°04' E 134°57'1111.3
2017-Feb-17 14:33N 34°15' E 134°58'1716.8
2017-Feb-17 13:33N 34°30' E 135°07'1211.5
2017-Feb-17 12:33N 34°40' E 135°14'1 0.5
2017-Feb-17 11:23N 34°40' E 135°14'0 0.0
2017-Feb-17 10:29N 34°40' E 135°14'0 0.0
2017-Feb-17 09:11N 34°40' E 135°14'0 0.0
2017-Feb-17 07:29N 34°40' E 135°14'0 0.0
2017-Feb-17 06:29N 34°40' E 135°14'0 0.0
2017-Feb-17 05:23N 34°40' E 135°14'1 0.9
2017-Feb-17 04:33N 34°40' E 135°15'8 7.9
2017-Feb-17 03:34N 34°39' E 135°24'0 0.2
2017-Feb-17 02:32N 34°39' E 135°24'0 0.0
2017-Feb-17 01:26N 34°39' E 135°24'0 0.0
2017-Feb-17 00:32N 34°39' E 135°24'0 0.1
2017-Feb-16 22:33N 34°39' E 135°24'9 9.4
2017-Feb-16 21:33N 34°32' E 135°16'1515.6
2017-Feb-16 20:34N 34°21' E 135°03'1413.9
2017-Feb-16 19:33N 34°07' E 134°59'1311.9
2017-Feb-16 18:27N 33°54' E 134°58'  
2017-Feb-13 22:22N 22°56' E 119°56'1417.1
2017-Feb-13 21:34N 22°44' E 120°03'1615.8
2017-Feb-13 20:33N 22°33' E 120°15'4 4.1
2017-Feb-13 19:33N 22°34' E 120°19'0 0.0
2017-Feb-13 18:27N 22°34' E 120°19'0 0.0
2017-Feb-13 17:33N 22°34' E 120°19'0 0.0
2017-Feb-13 16:30N 22°34' E 120°19'0 0.0
2017-Feb-13 15:30N 22°34' E 120°19'0 0.0
2017-Feb-13 14:30N 22°34' E 120°19'0 0.0
2017-Feb-13 13:18N 22°34' E 120°19'0 0.0
2017-Feb-13 11:33N 22°34' E 120°19'3 3.1
2017-Feb-13 10:33N 22°32' E 120°16'1 0.7
2017-Feb-13 09:33N 22°31' E 120°16'0 0.0
2017-Feb-13 08:27N 22°31' E 120°16'0 0.0
2017-Feb-13 07:24N 22°31' E 120°16'0 0.0
2017-Feb-13 06:33N 22°31' E 120°16'0 0.0
2017-Feb-13 05:30N 22°31' E 120°16'0 0.0
2017-Feb-13 04:33N 22°31' E 120°16'0 0.0
2017-Feb-13 03:33N 22°31' E 120°16'0 0.0
2017-Feb-13 02:33N 22°31' E 120°16'0 0.0
2017-Feb-13 01:27N 22°31' E 120°16'0 0.0
2017-Feb-13 00:33N 22°31' E 120°16'0 0.0
2017-Feb-12 23:30N 22°31' E 120°16'0 0.1
2017-Feb-12 22:33N 22°31' E 120°16'0 0.0
2017-Feb-12 21:33N 22°31' E 120°16'0 0.0
2017-Feb-12 20:33N 22°31' E 120°16'0 0.1
2017-Feb-12 19:33N 22°31' E 120°16'0 0.1
2017-Feb-12 18:33N 22°31' E 120°16'0 0.1
2017-Feb-12 17:30N 22°31' E 120°16'0 0.1
2017-Feb-12 16:33N 22°31' E 120°16'0 0.0
2017-Feb-12 15:33N 22°31' E 120°16'0 0.1
2017-Feb-12 14:33N 22°31' E 120°16'0 0.0
2017-Feb-12 13:33N 22°31' E 120°16'0 0.0
2017-Feb-12 12:33N 22°31' E 120°16'0 0.0
2017-Feb-12 11:30N 22°31' E 120°16'0 0.0
2017-Feb-12 10:30N 22°31' E 120°16'0 0.0
2017-Feb-12 09:33N 22°31' E 120°16'0 0.0
2017-Feb-12 08:33N 22°31' E 120°16'0 0.0
2017-Feb-12 07:33N 22°31' E 120°16'0 0.0
2017-Feb-12 06:33N 22°31' E 120°16'0 0.0
2017-Feb-12 05:33N 22°31' E 120°16'0 0.1
2017-Feb-12 04:33N 22°31' E 120°16'0 0.1
2017-Feb-12 03:27N 22°31' E 120°16'0 0.1
2017-Feb-12 02:30N 22°31' E 120°16'0 0.0
2017-Feb-12 01:33N 22°31' E 120°16'0 0.0
2017-Feb-12 00:33N 22°31' E 120°16'0 0.0
2017-Feb-11 23:33N 22°31' E 120°16'0 0.0
2017-Feb-11 22:33N 22°31' E 120°16'0 0.1
2017-Feb-11 21:30N 22°31' E 120°16'0 0.0
2017-Feb-11 20:33N 22°31' E 120°16'0 0.1
2017-Feb-11 19:33N 22°31' E 120°16'0 0.1
2017-Feb-11 18:33N 22°31' E 120°16'0 0.0
2017-Feb-11 17:33N 22°31' E 120°16'0 0.0
2017-Feb-11 16:33N 22°31' E 120°16'0 0.1
2017-Feb-11 15:33N 22°31' E 120°16'0 0.1
2017-Feb-11 14:33N 22°31' E 120°16'0 0.0
2017-Feb-11 13:33N 22°31' E 120°16'0 0.0
2017-Feb-11 12:33N 22°31' E 120°16'0 0.0
2017-Feb-11 11:30N 22°31' E 120°16'0 0.0
2017-Feb-11 10:33N 22°31' E 120°16'0 0.1
2017-Feb-11 09:33N 22°31' E 120°16'0 0.1
2017-Feb-11 08:33N 22°31' E 120°16'0 0.1
2017-Feb-11 07:30N 22°31' E 120°16'0 0.0
2017-Feb-11 06:33N 22°31' E 120°16'0 0.1
2017-Feb-11 05:33N 22°31' E 120°16'0 0.1
2017-Feb-11 04:33N 22°31' E 120°16'0 0.0
2017-Feb-11 03:30N 22°31' E 120°16'0 0.1
2017-Feb-11 02:33N 22°31' E 120°16'0 0.0
2017-Feb-11 01:33N 22°31' E 120°16'0 0.0
2017-Feb-11 00:33N 22°31' E 120°16'0 0.1
2017-Feb-10 23:33N 22°31' E 120°16'0 0.1
2017-Feb-10 22:33N 22°31' E 120°16'0 0.0
2017-Feb-10 21:33N 22°31' E 120°16'0 0.0
2017-Feb-10 20:33N 22°31' E 120°16'0 0.1
2017-Feb-10 19:33N 22°31' E 120°16'0 0.1
2017-Feb-10 18:33N 22°31' E 120°16'0 0.1
2017-Feb-10 17:33N 22°31' E 120°16'0 0.1
2017-Feb-10 16:33N 22°31' E 120°16'0 0.1
2017-Feb-10 15:30N 22°31' E 120°16'0 0.1
2017-Feb-10 14:33N 22°31' E 120°16'0 0.0
2017-Feb-10 13:33N 22°31' E 120°16'0 0.0
2017-Feb-10 12:33N 22°31' E 120°16'0 0.1
2017-Feb-10 11:33N 22°31' E 120°16'0 0.1
2017-Feb-10 10:33N 22°31' E 120°16'0 0.0
2017-Feb-10 09:33N 22°31' E 120°16'0 0.0
2017-Feb-10 08:33N 22°31' E 120°16'  
Track history (hours):
 
Tides and Currents Weather Stations Pressure Air Temp Water Temp Dewpoint Dewpoint Depression Visibility Wind Speed Wind Dir Waves Ship Positions

Gulf Bridge

Last reported at 2017-Feb-20 08:31 UTC. Time now 2017-Feb-20 08:56 UTC.
Position N 35°26' E 139°43'.

Length 213 m; beam 32.2 m; draft 11.5 m.

Type: Cargo ship. MMSI: 636017628.

Date/timePositionNaut miles runAvg speedWind from/ knotsBaromVisibWave heightAir tempDewpointWater temp
2017-Feb-20 08:31N 35°26' E 139°43'0 0.1
2017-Feb-20 07:30N 35°26' E 139°43'0 0.1
2017-Feb-20 06:34N 35°26' E 139°43'0 0.0
2017-Feb-20 05:31N 35°26' E 139°43'0 0.0
2017-Feb-20 04:33N 35°26' E 139°43'0 0.1
2017-Feb-20 03:30N 35°25' E 139°43'0 0.1
2017-Feb-20 02:32N 35°26' E 139°43'0 0.1
2017-Feb-20 01:32N 35°25' E 139°43'0 0.1
2017-Feb-20 00:31N 35°25' E 139°43'0 0.0
2017-Feb-19 23:32N 35°25' E 139°43'0 0.2
2017-Feb-19 22:31N 35°25' E 139°43'0 0.0
2017-Feb-19 21:31N 35°25' E 139°43'0 0.1
2017-Feb-19 20:33N 35°25' E 139°43'0 0.2
2017-Feb-19 19:33N 35°25' E 139°43'0 0.0
2017-Feb-19 18:33N 35°25' E 139°43'0 0.0
2017-Feb-19 17:33N 35°25' E 139°43'0 0.0
2017-Feb-19 16:33N 35°25' E 139°43'0 0.0
2017-Feb-19 15:33N 35°25' E 139°43'0 0.1
2017-Feb-19 14:33N 35°25' E 139°43'0 0.1
2017-Feb-19 13:33N 35°25' E 139°43'0 0.1
2017-Feb-19 12:33N 35°25' E 139°43'0 0.0
2017-Feb-19 11:33N 35°25' E 139°43'0 0.0
2017-Feb-19 10:33N 35°25' E 139°43'0 0.0
2017-Feb-19 09:33N 35°25' E 139°43'1 1.0
2017-Feb-19 08:33N 35°26' E 139°44'9 9.1
2017-Feb-19 07:33N 35°34' E 139°49'3 3.1
2017-Feb-19 06:31N 35°36' E 139°47'0 0.0
2017-Feb-19 05:28N 35°36' E 139°47'0 0.0
2017-Feb-19 04:31N 35°36' E 139°47'0 0.0
2017-Feb-19 03:31N 35°36' E 139°47'0 0.0
2017-Feb-19 02:22N 35°36' E 139°47'0 0.0
2017-Feb-19 01:28N 35°36' E 139°47'0 0.0
2017-Feb-19 00:31N 35°36' E 139°47'0 0.0
2017-Feb-18 23:22N 35°36' E 139°47'0 0.0
2017-Feb-18 22:31N 35°36' E 139°47'4 4.7
2017-Feb-18 21:33N 35°33' E 139°51'1111.2
2017-Feb-18 20:33N 35°23' E 139°46'1211.8
2017-Feb-18 19:33N 35°11' E 139°47'9 8.5
2017-Feb-18 18:33N 35°03' E 139°42'10 9.8
2017-Feb-18 17:33N 34°58' E 139°32'10 9.4
2017-Feb-18 16:33N 34°53' E 139°23'226 9.4
2017-Feb-17 16:21N 33°54' E 134°58'911.7
2017-Feb-17 15:33N 34°04' E 134°57'1111.3
2017-Feb-17 14:33N 34°15' E 134°58'1716.8
2017-Feb-17 13:33N 34°30' E 135°07'1211.5
2017-Feb-17 12:33N 34°40' E 135°14'1 0.5
2017-Feb-17 11:23N 34°40' E 135°14'0 0.0
2017-Feb-17 10:29N 34°40' E 135°14'0 0.0
2017-Feb-17 09:11N 34°40' E 135°14'0 0.0
2017-Feb-17 07:29N 34°40' E 135°14'0 0.0
2017-Feb-17 06:29N 34°40' E 135°14'0 0.0
2017-Feb-17 05:23N 34°40' E 135°14'1 0.9
2017-Feb-17 04:33N 34°40' E 135°15'8 7.9
2017-Feb-17 03:34N 34°39' E 135°24'0 0.2
2017-Feb-17 02:32N 34°39' E 135°24'0 0.0
2017-Feb-17 01:26N 34°39' E 135°24'0 0.0
2017-Feb-17 00:32N 34°39' E 135°24'0 0.1
2017-Feb-16 22:33N 34°39' E 135°24'9 9.4
2017-Feb-16 21:33N 34°32' E 135°16'1515.6
2017-Feb-16 20:34N 34°21' E 135°03'1413.9
2017-Feb-16 19:33N 34°07' E 134°59'1311.9
2017-Feb-16 18:27N 33°54' E 134°58'  
2017-Feb-13 22:22N 22°56' E 119°56'1417.1
2017-Feb-13 21:34N 22°44' E 120°03'1615.8
2017-Feb-13 20:33N 22°33' E 120°15'4 4.1
2017-Feb-13 19:33N 22°34' E 120°19'0 0.0
2017-Feb-13 18:27N 22°34' E 120°19'0 0.0
2017-Feb-13 17:33N 22°34' E 120°19'0 0.0
2017-Feb-13 16:30N 22°34' E 120°19'0 0.0
2017-Feb-13 15:30N 22°34' E 120°19'0 0.0
2017-Feb-13 14:30N 22°34' E 120°19'0 0.0
2017-Feb-13 13:18N 22°34' E 120°19'0 0.0
2017-Feb-13 11:33N 22°34' E 120°19'3 3.1
2017-Feb-13 10:33N 22°32' E 120°16'1 0.7
2017-Feb-13 09:33N 22°31' E 120°16'0 0.0
2017-Feb-13 08:27N 22°31' E 120°16'0 0.0
2017-Feb-13 07:24N 22°31' E 120°16'0 0.0
2017-Feb-13 06:33N 22°31' E 120°16'0 0.0
2017-Feb-13 05:30N 22°31' E 120°16'0 0.0
2017-Feb-13 04:33N 22°31' E 120°16'0 0.0
2017-Feb-13 03:33N 22°31' E 120°16'0 0.0
2017-Feb-13 02:33N 22°31' E 120°16'0 0.0
2017-Feb-13 01:27N 22°31' E 120°16'0 0.0
2017-Feb-13 00:33N 22°31' E 120°16'0 0.0
2017-Feb-12 23:30N 22°31' E 120°16'0 0.1
2017-Feb-12 22:33N 22°31' E 120°16'0 0.0
2017-Feb-12 21:33N 22°31' E 120°16'0 0.0
2017-Feb-12 20:33N 22°31' E 120°16'0 0.1
2017-Feb-12 19:33N 22°31' E 120°16'0 0.1
2017-Feb-12 18:33N 22°31' E 120°16'0 0.1
2017-Feb-12 17:30N 22°31' E 120°16'0 0.1
2017-Feb-12 16:33N 22°31' E 120°16'0 0.0
2017-Feb-12 15:33N 22°31' E 120°16'0 0.1
2017-Feb-12 14:33N 22°31' E 120°16'0 0.0
2017-Feb-12 13:33N 22°31' E 120°16'0 0.0
2017-Feb-12 12:33N 22°31' E 120°16'0 0.0
2017-Feb-12 11:30N 22°31' E 120°16'0 0.0
2017-Feb-12 10:30N 22°31' E 120°16'0 0.0
2017-Feb-12 09:33N 22°31' E 120°16'0 0.0
2017-Feb-12 08:33N 22°31' E 120°16'0 0.0
2017-Feb-12 07:33N 22°31' E 120°16'0 0.0
2017-Feb-12 06:33N 22°31' E 120°16'0 0.0
2017-Feb-12 05:33N 22°31' E 120°16'0 0.1
2017-Feb-12 04:33N 22°31' E 120°16'0 0.1
2017-Feb-12 03:27N 22°31' E 120°16'0 0.1
2017-Feb-12 02:30N 22°31' E 120°16'0 0.0
2017-Feb-12 01:33N 22°31' E 120°16'0 0.0
2017-Feb-12 00:33N 22°31' E 120°16'0 0.0
2017-Feb-11 23:33N 22°31' E 120°16'0 0.0
2017-Feb-11 22:33N 22°31' E 120°16'0 0.1
2017-Feb-11 21:30N 22°31' E 120°16'0 0.0
2017-Feb-11 20:33N 22°31' E 120°16'0 0.1
2017-Feb-11 19:33N 22°31' E 120°16'0 0.1
2017-Feb-11 18:33N 22°31' E 120°16'0 0.0
2017-Feb-11 17:33N 22°31' E 120°16'0 0.0
2017-Feb-11 16:33N 22°31' E 120°16'0 0.1
2017-Feb-11 15:33N 22°31' E 120°16'0 0.1
2017-Feb-11 14:33N 22°31' E 120°16'0 0.0
2017-Feb-11 13:33N 22°31' E 120°16'0 0.0
2017-Feb-11 12:33N 22°31' E 120°16'0 0.0
2017-Feb-11 11:30N 22°31' E 120°16'0 0.0
2017-Feb-11 10:33N 22°31' E 120°16'0 0.1
2017-Feb-11 09:33N 22°31' E 120°16'0 0.1
2017-Feb-11 08:33N 22°31' E 120°16'0 0.1
2017-Feb-11 07:30N 22°31' E 120°16'0 0.0
2017-Feb-11 06:33N 22°31' E 120°16'0 0.1
2017-Feb-11 05:33N 22°31' E 120°16'0 0.1
2017-Feb-11 04:33N 22°31' E 120°16'0 0.0
2017-Feb-11 03:30N 22°31' E 120°16'0 0.1
2017-Feb-11 02:33N 22°31' E 120°16'0 0.0
2017-Feb-11 01:33N 22°31' E 120°16'0 0.0
2017-Feb-11 00:33N 22°31' E 120°16'0 0.1
2017-Feb-10 23:33N 22°31' E 120°16'0 0.1
2017-Feb-10 22:33N 22°31' E 120°16'0 0.0
2017-Feb-10 21:33N 22°31' E 120°16'0 0.0
2017-Feb-10 20:33N 22°31' E 120°16'0 0.1
2017-Feb-10 19:33N 22°31' E 120°16'0 0.1
2017-Feb-10 18:33N 22°31' E 120°16'0 0.1
2017-Feb-10 17:33N 22°31' E 120°16'0 0.1
2017-Feb-10 16:33N 22°31' E 120°16'0 0.1
2017-Feb-10 15:30N 22°31' E 120°16'0 0.1
2017-Feb-10 14:33N 22°31' E 120°16'0 0.0
2017-Feb-10 13:33N 22°31' E 120°16'0 0.0
2017-Feb-10 12:33N 22°31' E 120°16'0 0.1
2017-Feb-10 11:33N 22°31' E 120°16'0 0.1
2017-Feb-10 10:33N 22°31' E 120°16'0 0.0
2017-Feb-10 09:33N 22°31' E 120°16'0 0.0
2017-Feb-10 08:33N 22°31' E 120°16'  

Dump ship's entire track history